WC StCyr

Date de la prise de vue : 28/02/2021 05:55:08
N'ayant pas de Météo à StCyr, voilà le METAR et le TAF de Villacoublay :
2021/02/28 04:30 LFPV 280430Z AUTO 05010KT 6000 NSC 03/01 Q1033 TEMPO BKN006
2021/02/28 03:15 TAF TAF LFPV 280200Z 2803/0103 04010KT CAVOK TX12/2815Z TN02/2806Z PROB30 TEMPO 2804/2808 BKN006